Time;durP1;ratioP1;P1;durP2;ratioP2;P2;SDS_P1;SDS_P2;PMS_P1;PMS_P2;Temp;Humidity;BMP_temperature;BMP_pressure;BME280_temperature;BME280_humidity;BME280_pressure;Samples;Min_cycle;Max_cycle;Signal;HPM_P1;HPM_P2
2023/03/17 00:00:41;;;;;;;3.60;3.28;;;;;;;;;;5042882;28;20193;-86
2023/03/17 00:03:11;;;;;;;2.92;2.63;;;;;;;;;;5043127;28;20213;-86
2023/03/17 00:05:39;;;;;;;3.60;2.92;;;;;;;;;;5042277;28;20222;-87
2023/03/17 00:08:13;;;;;;;3.40;3.08;;;;;;;;;;5041524;28;20229;-85
2023/03/17 00:10:41;;;;;;;4.07;3.10;;;;;;;;;;5042335;28;20714;-85
2023/03/17 00:13:13;;;;;;;3.38;3.08;;;;;;;;;;5040944;28;20260;-87
2023/03/17 00:15:40;;;;;;;3.65;3.03;;;;;;;;;;5041101;28;20279;-88
2023/03/17 00:18:12;;;;;;;3.03;2.75;;;;;;;;;;5041946;28;20647;-86
2023/03/17 00:20:39;;;;;;;3.50;3.17;;;;;;;;;;5042393;28;20190;-88
2023/03/17 00:23:11;;;;;;;3.92;2.90;;;;;;;;;;5042440;28;20207;-87
2023/03/17 00:25:41;;;;;;;5.68;3.13;;;;;;;;;;5042756;28;20261;-88
2023/03/17 00:28:19;;;;;;;4.70;3.22;;;;;;;;;;5042277;28;20331;-86
2023/03/17 00:30:47;;;;;;;3.88;2.30;;;;;;;;;;5041298;28;20214;-87
2023/03/17 00:33:16;;;;;;;3.50;3.20;;;;;;;;;;5041856;28;20248;-88
2023/03/17 00:35:45;;;;;;;3.80;3.05;;;;;;;;;;5042013;28;20313;-87
2023/03/17 00:38:17;;;;;;;4.65;2.80;;;;;;;;;;5042188;28;20233;-86
2023/03/17 00:40:45;;;;;;;6.18;2.75;;;;;;;;;;5042386;28;20651;-86
2023/03/17 00:43:13;;;;;;;2.90;2.60;;;;;;;;;;5041669;28;20241;-85
2023/03/17 00:45:43;;;;;;;3.22;2.92;;;;;;;;;;5041943;28;20221;-86
2023/03/17 00:48:15;;;;;;;3.55;3.10;;;;;;;;;;5041240;28;20274;-84
2023/03/17 00:50:43;;;;;;;3.28;2.75;;;;;;;;;;5041730;28;20194;-86
2023/03/17 00:53:12;;;;;;;2.80;2.60;;;;;;;;;;5042029;28;20555;-86
2023/03/17 00:55:40;;;;;;;3.20;2.75;;;;;;;;;;5041280;28;20237;-85
2023/03/17 00:58:23;;;;;;;5.20;4.18;;;;;;;;;;5040987;28;20284;-87
2023/03/17 01:00:52;;;;;;;4.30;3.40;;;;;;;;;;5040648;28;20218;-85
2023/03/17 01:03:21;;;;;;;3.80;3.20;;;;;;;;;;5040787;28;20229;-86
2023/03/17 01:05:49;;;;;;;4.13;3.20;;;;;;;;;;5040426;28;20745;-86
2023/03/17 01:08:17;;;;;;;5.40;3.08;;;;;;;;;;5040098;28;20262;-88
2023/03/17 01:10:44;;;;;;;4.20;3.15;;;;;;;;;;5040244;28;20233;-86
2023/03/17 01:13:14;;;;;;;5.45;3.42;;;;;;;;;;5041569;28;20202;-87
2023/03/17 01:15:44;;;;;;;3.60;3.08;;;;;;;;;;5042155;28;20652;-86
2023/03/17 01:18:16;;;;;;;3.85;3.17;;;;;;;;;;5041265;28;20190;-86
2023/03/17 01:20:44;;;;;;;3.75;2.90;;;;;;;;;;5040614;28;20185;-86
2023/03/17 01:23:12;;;;;;;4.88;3.03;;;;;;;;;;5041376;28;20258;-85
2023/03/17 01:25:42;;;;;;;3.75;2.90;;;;;;;;;;5040945;28;20766;-85
2023/03/17 01:28:12;;;;;;;4.05;3.65;;;;;;;;;;5041435;28;20202;-84
2023/03/17 01:30:41;;;;;;;4.03;3.08;;;;;;;;;;5038874;28;20259;-86
2023/03/17 01:33:11;;;;;;;4.22;3.25;;;;;;;;;;5040287;28;20206;-85
2023/03/17 01:35:42;;;;;;;3.95;3.05;;;;;;;;;;5040079;28;20252;-87
2023/03/17 01:38:10;;;;;;;3.38;3.08;;;;;;;;;;5038994;28;20222;-85
2023/03/17 01:40:43;;;;;;;4.32;3.75;;;;;;;;;;5039851;28;20237;-87
2023/03/17 01:43:23;;;;;;;3.65;3.35;;;;;;;;;;5039228;28;20705;-87
2023/03/17 01:46:28;;;;;;;5.05;3.05;;;;;;;;;;5039530;28;20305;-88
2023/03/17 01:49:14;;;;;;;2.85;2.60;;;;;;;;;;5039294;28;20278;-85
2023/03/17 01:51:57;;;;;;;3.58;3.28;;;;;;;;;;5039886;28;20269;-85
2023/03/17 01:54:29;;;;;;;3.50;3.17;;;;;;;;;;5039656;28;20197;-86
2023/03/17 01:57:00;;;;;;;4.13;3.50;;;;;;;;;;5039780;28;20218;-86
2023/03/17 01:59:35;;;;;;;3.55;3.25;;;;;;;;;;5039436;28;20197;-84
2023/03/17 02:02:07;;;;;;;3.92;3.53;;;;;;;;;;5039727;28;20261;-85
2023/03/17 02:04:35;;;;;;;4.38;3.28;;;;;;;;;;5040948;28;20242;-85
2023/03/17 02:07:04;;;;;;;3.60;3.28;;;;;;;;;;5040412;28;20241;-85
2023/03/17 02:09:32;;;;;;;4.53;3.45;;;;;;;;;;5038852;28;20198;-84
2023/03/17 02:12:02;;;;;;;4.15;3.75;;;;;;;;;;5039618;28;20206;-85
2023/03/17 02:14:30;;;;;;;3.88;3.30;;;;;;;;;;5039967;28;20209;-86
2023/03/17 02:16:58;;;;;;;3.40;3.10;;;;;;;;;;5041445;28;20334;-85
2023/03/17 02:19:25;;;;;;;3.95;3.65;;;;;;;;;;5042005;28;20397;-86
2023/03/17 02:21:56;;;;;;;4.72;3.67;;;;;;;;;;5042441;28;20628;-86
2023/03/17 02:24:32;;;;;;;3.40;3.10;;;;;;;;;;5042796;28;20655;-85
2023/03/17 02:27:05;;;;;;;4.75;3.63;;;;;;;;;;5042271;28;20218;-86
2023/03/17 02:29:36;;;;;;;4.15;3.47;;;;;;;;;;5041876;28;20256;-85
2023/03/17 02:32:05;;;;;;;4.20;3.70;;;;;;;;;;5041646;28;20237;-86
2023/03/17 02:34:33;;;;;;;4.40;3.72;;;;;;;;;;5042588;28;20206;-86
2023/03/17 02:37:02;;;;;;;3.72;3.42;;;;;;;;;;5042668;28;20309;-87
2023/03/17 02:39:29;;;;;;;4.28;3.58;;;;;;;;;;5042120;28;20241;-85
2023/03/17 02:41:57;;;;;;;4.93;3.20;;;;;;;;;;5043176;28;20222;-86
2023/03/17 02:44:25;;;;;;;3.38;3.03;;;;;;;;;;5042812;28;20286;-87
2023/03/17 02:46:53;;;;;;;4.60;3.15;;;;;;;;;;5042616;28;20661;-85
2023/03/17 02:49:21;;;;;;;3.25;2.95;;;;;;;;;;5041937;28;20229;-85
2023/03/17 02:51:48;;;;;;;3.05;2.75;;;;;;;;;;5042672;28;20305;-85
2023/03/17 02:54:17;;;;;;;3.38;3.08;;;;;;;;;;5043491;28;20280;-86
2023/03/17 02:56:45;;;;;;;2.58;2.20;;;;;;;;;;5042205;28;20262;-86
2023/03/17 02:59:13;;;;;;;3.22;2.90;;;;;;;;;;5043273;28;20282;-84
2023/03/17 03:01:40;;;;;;;4.55;3.22;;;;;;;;;;5043018;28;20296;-84
2023/03/17 03:04:08;;;;;;;4.82;3.17;;;;;;;;;;5042762;28;20214;-84
2023/03/17 03:06:36;;;;;;;3.55;3.22;;;;;;;;;;5042282;28;20223;-84
2023/03/17 03:09:04;;;;;;;3.25;2.95;;;;;;;;;;5042472;28;20210;-84
2023/03/17 03:11:33;;;;;;;3.03;2.67;;;;;;;;;;5041794;28;20225;-85
2023/03/17 03:14:01;;;;;;;5.00;3.50;;;;;;;;;;5041154;28;20214;-84
2023/03/17 03:16:28;;;;;;;3.33;2.80;;;;;;;;;;5040850;28;20237;-86
2023/03/17 03:18:56;;;;;;;2.60;2.40;;;;;;;;;;5040793;28;20651;-84
2023/03/17 03:21:23;;;;;;;4.03;3.63;;;;;;;;;;5041581;28;20210;-86
2023/03/17 03:23:51;;;;;;;5.15;3.15;;;;;;;;;;5040851;28;20234;-85
2023/03/17 03:26:19;;;;;;;4.45;3.13;;;;;;;;;;5041356;28;20241;-86
2023/03/17 03:28:47;;;;;;;3.30;3.00;;;;;;;;;;5040071;28;20209;-86
2023/03/17 03:31:15;;;;;;;3.72;3.17;;;;;;;;;;5041380;28;20230;-86
2023/03/17 03:33:44;;;;;;;3.40;3.03;;;;;;;;;;5041140;28;20210;-85
2023/03/17 03:36:12;;;;;;;3.10;2.90;;;;;;;;;;5041667;28;20321;-86
2023/03/17 03:38:40;;;;;;;4.35;3.13;;;;;;;;;;5040331;28;20264;-86
2023/03/17 03:41:08;;;;;;;4.85;3.85;;;;;;;;;;5041614;28;20727;-87
2023/03/17 03:43:35;;;;;;;4.10;3.70;;;;;;;;;;5042429;28;20205;-88
2023/03/17 03:46:05;;;;;;;5.47;3.35;;;;;;;;;;5041790;28;20314;-87
2023/03/17 03:48:32;;;;;;;4.38;3.53;;;;;;;;;;5042046;28;20293;-87
2023/03/17 03:51:01;;;;;;;5.88;3.22;;;;;;;;;;5042992;28;20289;-86
2023/03/17 03:53:30;;;;;;;3.53;3.22;;;;;;;;;;5042507;28;20226;-85
2023/03/17 03:55:57;;;;;;;3.47;2.90;;;;;;;;;;5041449;28;20302;-86
2023/03/17 03:58:25;;;;;;;3.63;2.92;;;;;;;;;;5041899;28;20199;-85
2023/03/17 04:00:52;;;;;;;3.55;3.17;;;;;;;;;;5041605;28;20258;-84
2023/03/17 04:03:21;;;;;;;3.40;3.10;;;;;;;;;;5042162;28;20237;-84
2023/03/17 04:05:49;;;;;;;4.70;3.20;;;;;;;;;;5041482;28;20261;-83
2023/03/17 04:08:16;;;;;;;3.45;2.92;;;;;;;;;;5040372;28;20212;-86
2023/03/17 04:10:44;;;;;;;3.30;3.00;;;;;;;;;;5040864;28;20626;-86
2023/03/17 04:13:12;;;;;;;3.40;3.10;;;;;;;;;;5041442;28;20205;-86
2023/03/17 04:15:40;;;;;;;3.20;2.90;;;;;;;;;;5040763;28;20367;-87
2023/03/17 04:18:08;;;;;;;3.53;2.90;;;;;;;;;;5041300;28;20583;-86
2023/03/17 04:20:38;;;;;;;3.60;3.05;;;;;;;;;;5040576;28;20203;-85
2023/03/17 04:23:06;;;;;;;3.88;3.28;;;;;;;;;;5041129;28;20681;-82
2023/03/17 04:25:34;;;;;;;5.07;3.17;;;;;;;;;;5040363;28;20238;-86
2023/03/17 04:28:01;;;;;;;3.33;3.03;;;;;;;;;;5040874;28;20202;-84
2023/03/17 04:30:29;;;;;;;3.47;3.13;;;;;;;;;;5040759;28;20270;-87
2023/03/17 04:32:57;;;;;;;4.75;3.38;;;;;;;;;;5041173;28;20264;-86
2023/03/17 04:35:24;;;;;;;3.38;3.08;;;;;;;;;;5040337;28;20569;-86
2023/03/17 04:37:53;;;;;;;3.38;3.08;;;;;;;;;;5040184;28;20313;-86
2023/03/17 04:40:21;;;;;;;3.00;2.70;;;;;;;;;;5039849;28;20226;-86
2023/03/17 04:42:48;;;;;;;3.25;2.50;;;;;;;;;;5041286;28;20238;-86
2023/03/17 04:45:16;;;;;;;3.03;2.70;;;;;;;;;;5037963;28;20745;-86
2023/03/17 04:47:45;;;;;;;5.93;3.60;;;;;;;;;;5040330;28;20305;-86
2023/03/17 04:50:13;;;;;;;3.55;2.60;;;;;;;;;;5039913;28;20252;-85
2023/03/17 04:52:41;;;;;;;3.25;2.95;;;;;;;;;;5040457;28;20234;-86
2023/03/17 04:55:11;;;;;;;3.45;3.15;;;;;;;;;;5040719;28;20245;-84
2023/03/17 04:57:39;;;;;;;3.20;2.90;;;;;;;;;;5039267;28;20222;-84
2023/03/17 05:00:10;;;;;;;3.17;2.88;;;;;;;;;;5039084;28;20208;-84
2023/03/17 05:02:38;;;;;;;3.25;2.78;;;;;;;;;;5030074;28;20203;-84
2023/03/17 05:05:06;;;;;;;3.53;3.22;;;;;;;;;;5018047;28;20199;-86
2023/03/17 05:07:34;;;;;;;3.75;2.97;;;;;;;;;;5019869;28;20295;-86
2023/03/17 05:10:02;;;;;;;3.20;2.85;;;;;;;;;;5018978;28;20222;-85
2023/03/17 05:12:30;;;;;;;4.43;3.47;;;;;;;;;;5020222;28;20203;-85
2023/03/17 05:14:59;;;;;;;4.32;3.17;;;;;;;;;;5020712;28;20195;-86
2023/03/17 05:17:27;;;;;;;3.38;3.08;;;;;;;;;;5020539;28;20338;-85
2023/03/17 05:19:54;;;;;;;2.95;2.70;;;;;;;;;;5019827;28;20245;-86
2023/03/17 05:22:22;;;;;;;3.38;3.08;;;;;;;;;;5020114;28;20211;-85
2023/03/17 05:24:49;;;;;;;3.20;2.90;;;;;;;;;;5020488;28;20759;-85
2023/03/17 05:27:17;;;;;;;3.15;2.60;;;;;;;;;;5019593;28;20255;-85
2023/03/17 05:29:46;;;;;;;2.50;2.30;;;;;;;;;;5019233;28;20280;-85
2023/03/17 05:32:14;;;;;;;3.05;2.80;;;;;;;;;;5026450;28;20202;-86
2023/03/17 05:34:42;;;;;;;4.63;2.78;;;;;;;;;;5039446;28;20301;-84
2023/03/17 05:37:09;;;;;;;5.32;2.80;;;;;;;;;;5040074;28;20222;-85
2023/03/17 05:39:37;;;;;;;3.25;2.92;;;;;;;;;;5039122;28;20198;-84
2023/03/17 05:42:05;;;;;;;2.83;2.53;;;;;;;;;;5039381;28;20289;-88
2023/03/17 05:44:33;;;;;;;5.25;3.88;;;;;;;;;;5039633;28;20289;-86
2023/03/17 05:47:02;;;;;;;4.07;3.75;;;;;;;;;;5039091;28;20307;-86
2023/03/17 05:49:29;;;;;;;5.00;2.75;;;;;;;;;;5039512;28;20262;-84
2023/03/17 05:51:57;;;;;;;3.22;2.90;;;;;;;;;;5042552;28;20792;-87
2023/03/17 05:54:25;;;;;;;3.03;2.67;;;;;;;;;;5039848;28;20198;-87
2023/03/17 05:56:52;;;;;;;4.00;2.75;;;;;;;;;;5039066;28;20250;-87
2023/03/17 05:59:21;;;;;;;3.05;2.78;;;;;;;;;;5042593;28;20234;-86
2023/03/17 06:01:48;;;;;;;3.60;3.00;;;;;;;;;;5043413;28;20206;-86
2023/03/17 06:04:17;;;;;;;3.53;3.10;;;;;;;;;;5042735;28;20198;-85
2023/03/17 06:06:45;;;;;;;3.30;2.92;;;;;;;;;;5042826;28;20254;-85
2023/03/17 06:09:12;;;;;;;2.88;2.67;;;;;;;;;;5043242;28;20210;-84
2023/03/17 06:11:40;;;;;;;2.78;2.50;;;;;;;;;;5043278;28;20289;-85
2023/03/17 06:14:08;;;;;;;3.42;2.78;;;;;;;;;;5043821;28;20206;-83
2023/03/17 06:16:35;;;;;;;3.75;3.28;;;;;;;;;;5040887;28;20591;-85
2023/03/17 06:19:03;;;;;;;5.03;3.25;;;;;;;;;;5050051;28;20240;-85
2023/03/17 06:21:31;;;;;;;3.85;2.97;;;;;;;;;;5043375;28;20214;-84
2023/03/17 06:23:59;;;;;;;4.40;3.25;;;;;;;;;;5041342;28;20589;-84
2023/03/17 06:26:27;;;;;;;3.00;2.70;;;;;;;;;;5041923;28;20222;-86
2023/03/17 06:28:54;;;;;;;3.63;3.17;;;;;;;;;;5042483;28;20262;-86
2023/03/17 06:31:22;;;;;;;2.92;2.60;;;;;;;;;;5042330;28;20298;-85
2023/03/17 06:33:50;;;;;;;3.78;3.47;;;;;;;;;;5023279;28;20187;-86
2023/03/17 06:36:18;;;;;;;4.22;2.88;;;;;;;;;;5020970;28;20719;-85
2023/03/17 06:38:47;;;;;;;5.70;3.05;;;;;;;;;;5021182;28;20222;-86
2023/03/17 06:41:15;;;;;;;3.33;3.03;;;;;;;;;;5021613;28;20676;-87
2023/03/17 06:43:42;;;;;;;3.47;2.83;;;;;;;;;;5021021;28;20206;-86
2023/03/17 06:46:10;;;;;;;3.47;3.05;;;;;;;;;;5030427;28;20233;-87
2023/03/17 06:48:38;;;;;;;3.00;2.40;;;;;;;;;;5041042;28;20289;-87
2023/03/17 06:51:06;;;;;;;2.92;2.65;;;;;;;;;;5041808;28;20206;-86
2023/03/17 06:53:33;;;;;;;2.58;2.38;;;;;;;;;;5041411;28;20195;-86
2023/03/17 06:56:03;;;;;;;3.33;2.92;;;;;;;;;;5042157;28;20253;-86
2023/03/17 06:58:32;;;;;;;3.58;3.05;;;;;;;;;;5041494;28;20296;-86
2023/03/17 07:00:59;;;;;;;3.42;3.13;;;;;;;;;;5041732;28;20723;-84
2023/03/17 07:03:28;;;;;;;3.13;2.90;;;;;;;;;;5041676;28;20210;-84
2023/03/17 07:05:55;;;;;;;4.20;3.35;;;;;;;;;;5040988;28;20318;-88
2023/03/17 07:08:23;;;;;;;3.40;3.10;;;;;;;;;;5042835;28;20226;-87
2023/03/17 07:10:51;;;;;;;5.95;3.40;;;;;;;;;;5041283;28;20225;-86
2023/03/17 07:13:21;;;;;;;3.85;3.45;;;;;;;;;;5041302;28;20209;-87
2023/03/17 07:15:49;;;;;;;4.63;3.03;;;;;;;;;;5040721;28;20233;-85
2023/03/17 07:18:17;;;;;;;4.28;2.90;;;;;;;;;;5040676;28;20317;-85
2023/03/17 07:20:45;;;;;;;3.22;2.92;;;;;;;;;;5041113;28;20195;-87
2023/03/17 07:23:16;;;;;;;3.10;2.75;;;;;;;;;;5041805;28;20293;-86
2023/03/17 07:25:45;;;;;;;3.50;3.20;;;;;;;;;;5041952;28;20264;-87
2023/03/17 07:28:13;;;;;;;4.03;3.10;;;;;;;;;;5042374;28;20199;-87
2023/03/17 07:30:45;;;;;;;3.67;3.38;;;;;;;;;;5064755;22;20328;-88
2023/03/17 07:33:13;;;;;;;2.80;2.60;;;;;;;;;;5059289;28;20208;-87
2023/03/17 07:35:41;;;;;;;3.70;3.03;;;;;;;;;;5060520;28;20202;-86
2023/03/17 07:38:08;;;;;;;4.68;2.67;;;;;;;;;;5060495;28;20553;-86
2023/03/17 07:40:37;;;;;;;3.65;3.35;;;;;;;;;;5060118;28;20276;-87
2023/03/17 07:43:05;;;;;;;2.92;2.72;;;;;;;;;;5059926;28;20205;-88
2023/03/17 07:45:34;;;;;;;3.10;2.80;;;;;;;;;;5059751;28;20228;-88
2023/03/17 07:48:03;;;;;;;3.22;2.72;;;;;;;;;;5060413;28;20654;-88
2023/03/17 07:50:31;;;;;;;3.10;2.88;;;;;;;;;;5060089;28;20218;-87
2023/03/17 07:52:59;;;;;;;3.55;3.25;;;;;;;;;;5060245;28;20292;-88
2023/03/17 07:55:26;;;;;;;3.40;3.10;;;;;;;;;;5060278;28;20234;-86
2023/03/17 07:57:54;;;;;;;3.10;2.80;;;;;;;;;;5059413;28;20235;-87
2023/03/17 08:00:23;;;;;;;3.85;2.70;;;;;;;;;;5061951;28;20256;-87
2023/03/17 08:02:51;;;;;;;3.33;3.03;;;;;;;;;;5079049;28;20191;-87
2023/03/17 08:05:27;;;;;;;3.50;3.17;;;;;;;;;;5078286;28;20540;-87
2023/03/17 08:07:55;;;;;;;3.10;2.75;;;;;;;;;;5078792;28;20228;-88
2023/03/17 08:10:22;;;;;;;2.67;2.47;;;;;;;;;;5078389;28;20225;-87
2023/03/17 08:12:52;;;;;;;2.60;2.40;;;;;;;;;;5077495;28;20193;-87
2023/03/17 08:15:20;;;;;;;3.20;2.67;;;;;;;;;;5076384;28;20287;-88
2023/03/17 08:17:48;;;;;;;3.20;2.90;;;;;;;;;;5079132;28;20212;-88
2023/03/17 08:20:16;;;;;;;3.05;2.80;;;;;;;;;;5080668;28;20252;-88
2023/03/17 08:22:45;;;;;;;2.90;2.70;;;;;;;;;;5080565;28;20677;-88
2023/03/17 08:25:13;;;;;;;3.00;2.70;;;;;;;;;;5080827;28;20204;-87
2023/03/17 08:27:41;;;;;;;4.28;3.25;;;;;;;;;;5080429;28;20251;-88
2023/03/17 08:30:11;;;;;;;3.58;3.28;;;;;;;;;;5079625;28;20777;-88
2023/03/17 08:32:39;;;;;;;4.18;3.40;;;;;;;;;;5079552;28;20240;-89
2023/03/17 08:35:07;;;;;;;3.88;3.40;;;;;;;;;;5079913;28;20283;-88
2023/03/17 08:37:36;;;;;;;3.53;3.22;;;;;;;;;;5080496;28;20253;-87
2023/03/17 08:40:08;;;;;;;3.40;3.10;;;;;;;;;;5078946;28;20225;-88
2023/03/17 08:42:37;;;;;;;3.88;3.03;;;;;;;;;;5080289;28;20593;-88
2023/03/17 08:45:06;;;;;;;4.60;3.33;;;;;;;;;;5080431;28;20196;-87
2023/03/17 08:47:37;;;;;;;3.65;2.83;;;;;;;;;;5080474;28;20632;-87
2023/03/17 08:50:08;;;;;;;3.78;3.47;;;;;;;;;;5079865;28;20304;-87
2023/03/17 08:52:36;;;;;;;3.33;3.03;;;;;;;;;;5080063;28;20200;-88
2023/03/17 08:55:07;;;;;;;3.22;3.00;;;;;;;;;;5078792;28;20593;-88
2023/03/17 08:57:35;;;;;;;3.47;3.17;;;;;;;;;;5079678;28;20181;-88
2023/03/17 09:00:08;;;;;;;3.30;2.75;;;;;;;;;;5078493;28;20225;-88
2023/03/17 09:02:37;;;;;;;3.42;3.13;;;;;;;;;;5059723;28;20196;-87
2023/03/17 09:05:07;;;;;;;3.35;3.05;;;;;;;;;;5059260;28;20209;-88
2023/03/17 09:07:35;;;;;;;3.60;2.95;;;;;;;;;;5059693;28;20225;-87
2023/03/17 09:10:05;;;;;;;3.70;3.35;;;;;;;;;;5058873;28;20231;-87
2023/03/17 09:12:33;;;;;;;3.47;3.17;;;;;;;;;;5059801;28;20202;-87
2023/03/17 09:15:02;;;;;;;3.58;3.22;;;;;;;;;;5059580;28;20205;-87
2023/03/17 09:17:29;;;;;;;3.33;2.80;;;;;;;;;;5058612;28;20236;-87
2023/03/17 09:19:58;;;;;;;3.53;2.95;;;;;;;;;;5057970;28;20236;-87
2023/03/17 09:22:25;;;;;;;2.95;2.75;;;;;;;;;;5057873;28;20225;-88
2023/03/17 09:24:53;;;;;;;4.07;3.70;;;;;;;;;;5058286;28;20609;-87
2023/03/17 09:27:22;;;;;;;2.78;2.55;;;;;;;;;;5058846;28;20637;-86
2023/03/17 09:29:49;;;;;;;3.28;2.65;;;;;;;;;;5058089;28;20283;-87
2023/03/17 09:32:17;;;;;;;2.55;2.35;;;;;;;;;;5058917;28;20197;-86
2023/03/17 09:34:45;;;;;;;2.78;2.58;;;;;;;;;;5058353;28;20197;-86
2023/03/17 09:37:13;;;;;;;3.10;2.50;;;;;;;;;;5059216;28;20293;-87
2023/03/17 09:39:41;;;;;;;2.75;2.42;;;;;;;;;;5057783;28;20225;-87
2023/03/17 09:42:21;;;;;;;3.22;2.92;;;;;;;;;;5057903;28;20205;-87
2023/03/17 09:45:06;;;;;;;3.35;2.63;;;;;;;;;;5058061;28;20241;-87
2023/03/17 09:48:01;;;;;;;2.80;2.55;;;;;;;;;;5038915;28;20187;-87
2023/03/17 09:50:33;;;;;;;3.22;2.92;;;;;;;;;;5037656;28;20720;-87
2023/03/17 09:53:03;;;;;;;2.60;2.17;;;;;;;;;;5037378;28;20278;-87
2023/03/17 09:55:33;;;;;;;1.90;1.80;;;;;;;;;;5036622;28;20232;-87
2023/03/17 09:58:02;;;;;;;4.60;2.42;;;;;;;;;;5036509;28;20212;-87
2023/03/17 10:00:30;;;;;;;2.88;2.65;;;;;;;;;;5037503;28;20230;-88
2023/03/17 10:03:00;;;;;;;3.22;2.92;;;;;;;;;;5038546;28;20225;-87
2023/03/17 10:05:30;;;;;;;2.60;2.40;;;;;;;;;;5038911;28;20205;-88
2023/03/17 10:08:06;;;;;;;2.22;2.03;;;;;;;;;;5038468;28;20237;-87
2023/03/17 10:10:41;;;;;;;2.17;2.00;;;;;;;;;;5036102;28;20271;-87
2023/03/17 10:13:22;;;;;;;1.73;1.63;;;;;;;;;;5036651;28;20206;-88
2023/03/17 10:15:52;;;;;;;2.72;2.38;;;;;;;;;;5035864;28;20182;-87
2023/03/17 10:18:26;;;;;;;2.58;2.38;;;;;;;;;;5035660;28;20233;-87
2023/03/17 10:20:57;;;;;;;2.65;2.45;;;;;;;;;;5037191;28;20233;-88
2023/03/17 10:23:29;;;;;;;3.05;2.75;;;;;;;;;;5036077;28;20539;-88
2023/03/17 10:26:00;;;;;;;2.42;1.95;;;;;;;;;;5036142;28;20213;-87
2023/03/17 10:28:34;;;;;;;2.42;2.17;;;;;;;;;;5036873;28;20203;-87
2023/03/17 10:31:15;;;;;;;3.38;2.75;;;;;;;;;;5052110;28;20197;-87
2023/03/17 10:33:43;;;;;;;2.33;1.85;;;;;;;;;;5074885;28;20264;-87
2023/03/17 10:36:14;;;;;;;1.73;1.63;;;;;;;;;;5075143;28;20270;-88
2023/03/17 10:38:46;;;;;;;2.13;2.00;;;;;;;;;;5079423;28;20173;-87
2023/03/17 10:41:16;;;;;;;4.57;3.42;;;;;;;;;;5080787;28;20220;-89
2023/03/17 10:43:49;;;;;;;2.22;2.00;;;;;;;;;;5080688;28;20208;-86
2023/03/17 10:46:21;;;;;;;2.40;2.20;;;;;;;;;;5080775;28;20272;-88
2023/03/17 10:48:52;;;;;;;2.28;1.80;;;;;;;;;;5081343;28;20322;-85
2023/03/17 10:51:30;;;;;;;2.80;2.58;;;;;;;;;;5082806;28;20726;-85
2023/03/17 10:54:02;;;;;;;2.35;2.00;;;;;;;;;;5081266;28;20555;-87
2023/03/17 10:56:38;;;;;;;1.83;1.73;;;;;;;;;;5081288;28;20203;-86
2023/03/17 10:59:15;;;;;;;3.53;2.65;;;;;;;;;;5079524;28;20225;-86
2023/03/17 11:01:47;;;;;;;2.58;2.22;;;;;;;;;;5065228;28;20213;-87
2023/03/17 11:04:30;;;;;;;2.50;2.00;;;;;;;;;;5060150;28;20670;-86
2023/03/17 11:07:00;;;;;;;2.05;1.85;;;;;;;;;;5059862;28;20190;-86
2023/03/17 11:09:30;;;;;;;2.30;2.10;;;;;;;;;;5059675;28;20313;-87
2023/03/17 11:12:07;;;;;;;2.70;2.50;;;;;;;;;;5059888;28;20229;-87
2023/03/17 11:14:37;;;;;;;2.42;2.22;;;;;;;;;;5059930;28;20190;-87
2023/03/17 11:17:16;;;;;;;3.67;2.33;;;;;;;;;;5059692;28;20710;-87
2023/03/17 11:19:53;;;;;;;2.35;1.98;;;;;;;;;;5060840;28;20253;-87
2023/03/17 11:22:27;;;;;;;2.40;2.20;;;;;;;;;;5058847;28;20217;-88
2023/03/17 11:25:03;;;;;;;2.20;2.03;;;;;;;;;;5059864;28;20217;-86
2023/03/17 11:27:33;;;;;;;2.40;2.20;;;;;;;;;;5061437;28;20196;-87
2023/03/17 11:30:16;;;;;;;3.47;2.33;;;;;;;;;;5060818;28;20320;-86
2023/03/17 11:32:59;;;;;;;3.80;1.90;;;;;;;;;;5060024;28;20206;-88
2023/03/17 11:35:40;;;;;;;2.45;1.98;;;;;;;;;;5059714;28;20186;-88
2023/03/17 11:38:23;;;;;;;2.47;2.28;;;;;;;;;;5059629;28;20197;-87
2023/03/17 11:41:29;;;;;;;3.60;2.13;;;;;;;;;;5058414;28;20225;-86
2023/03/17 11:44:54;;;;;;;2.58;1.85;;;;;;;;;;5052121;28;20208;-87
2023/03/17 11:47:38;;;;;;;3.08;2.20;;;;;;;;;;5056913;28;20190;-89
2023/03/17 11:50:19;;;;;;;2.90;1.95;;;;;;;;;;5058798;28;20221;-86
2023/03/17 11:53:10;;;;;;;2.15;1.95;;;;;;;;;;5059410;28;20245;-86
2023/03/17 11:55:44;;;;;;;2.67;2.10;;;;;;;;;;5057261;28;20205;-86
2023/03/17 11:58:27;;;;;;;4.07;2.05;;;;;;;;;;5059988;28;20220;-86
2023/03/17 12:00:59;;;;;;;2.35;2.05;;;;;;;;;;5059879;28;20257;-85
2023/03/17 12:03:37;;;;;;;2.38;1.98;;;;;;;;;;5059882;28;20186;-86
2023/03/17 12:06:11;;;;;;;2.25;2.05;;;;;;;;;;5059713;28;20193;-85
2023/03/17 12:08:44;;;;;;;2.42;2.13;;;;;;;;;;5059299;28;20208;-86
2023/03/17 12:11:15;;;;;;;1.95;1.75;;;;;;;;;;5060008;28;20277;-85
2023/03/17 12:13:46;;;;;;;1.75;1.65;;;;;;;;;;5060154;28;20557;-86
2023/03/17 12:16:30;;;;;;;4.18;2.38;;;;;;;;;;5059548;28;20185;-86
2023/03/17 12:19:07;;;;;;;1.75;1.55;;;;;;;;;;5060106;28;20704;-86
2023/03/17 12:21:39;;;;;;;2.47;2.17;;;;;;;;;;5059044;28;20202;-85
2023/03/17 12:24:13;;;;;;;2.15;1.90;;;;;;;;;;5060393;28;20288;-86
2023/03/17 12:26:47;;;;;;;1.98;1.77;;;;;;;;;;5059955;28;20288;-86
2023/03/17 12:29:19;;;;;;;1.80;1.70;;;;;;;;;;5058993;28;20732;-85
2023/03/17 12:31:54;;;;;;;3.30;2.08;;;;;;;;;;5059313;28;20678;-85
2023/03/17 12:34:28;;;;;;;1.77;1.58;;;;;;;;;;5060215;28;20220;-86
2023/03/17 12:36:56;;;;;;;3.38;1.92;;;;;;;;;;5058870;28;20221;-86
2023/03/17 12:39:28;;;;;;;2.17;1.38;;;;;;;;;;5058500;28;20229;-86
2023/03/17 12:42:29;;;;;;;1.65;1.55;;;;;;;;;;5059113;28;20222;-84
2023/03/17 12:45:32;;;;;;;1.85;1.75;;;;;;;;;;5059996;28;20222;-85
2023/03/17 12:48:16;;;;;;;2.75;1.73;;;;;;;;;;5060322;28;20277;-86
2023/03/17 12:51:05;;;;;;;1.80;1.38;;;;;;;;;;5059183;28;20732;-86
2023/03/17 12:53:34;;;;;;;3.25;1.60;;;;;;;;;;5058919;28;20217;-86
2023/03/17 12:56:11;;;;;;;1.73;1.58;;;;;;;;;;5058343;28;20624;-86
2023/03/17 12:58:40;;;;;;;1.40;1.30;;;;;;;;;;5058247;28;20276;-86
2023/03/17 13:01:18;;;;;;;5.93;1.48;;;;;;;;;;5057619;28;20205;-86
2023/03/17 13:04:02;;;;;;;1.40;1.30;;;;;;;;;;5057996;28;20697;-86
2023/03/17 13:06:39;;;;;;;1.90;1.30;;;;;;;;;;5058953;28;20186;-87
2023/03/17 13:09:47;;;;;;;5.32;2.42;;;;;;;;;;5057744;28;20220;-87
2023/03/17 13:13:00;;;;;;;1.90;1.52;;;;;;;;;;5057633;28;20253;-86
2023/03/17 13:15:45;;;;;;;1.65;1.33;;;;;;;;;;5050568;28;20208;-87
2023/03/17 13:18:52;;;;;;;1.83;1.10;;;;;;;;;;5056897;28;20212;-86
2023/03/17 13:21:26;;;;;;;1.70;1.60;;;;;;;;;;5051347;28;20201;-86
2023/03/17 13:24:00;;;;;;;3.42;1.50;;;;;;;;;;5057227;28;20254;-88
2023/03/17 13:26:54;;;;;;;3.47;1.30;;;;;;;;;;5056312;28;20197;-88
2023/03/17 13:29:46;;;;;;;1.35;1.25;;;;;;;;;;5048568;28;20257;-87
2023/03/17 13:32:38;;;;;;;1.33;1.23;;;;;;;;;;5056213;28;20217;-88
2023/03/17 13:35:34;;;;;;;1.67;1.58;;;;;;;;;;5061137;23;20236;-90
2023/03/17 13:38:50;;;;;;;1.08;1.08;;;;;;;;;;5056148;28;20231;-89
2023/03/17 13:41:46;;;;;;;2.03;1.30;;;;;;;;;;5022689;28;20216;-88
2023/03/17 13:44:36;;;;;;;1.45;1.15;;;;;;;;;;5053783;28;20229;-87
2023/03/17 13:47:25;;;;;;;2.33;1.40;;;;;;;;;;5056776;28;20244;-88
2023/03/17 13:49:58;;;;;;;1.55;1.20;;;;;;;;;;5057532;28;20198;-88
2023/03/17 13:52:30;;;;;;;1.52;1.13;;;;;;;;;;5056912;28;20288;-88
2023/03/17 13:55:06;;;;;;;2.85;2.25;;;;;;;;;;5056748;28;20308;-87
2023/03/17 13:57:39;;;;;;;1.63;1.20;;;;;;;;;;5055712;28;20201;-86
2023/03/17 14:00:23;;;;;;;1.35;1.17;;;;;;;;;;5055265;28;20186;-86
2023/03/17 14:02:57;;;;;;;1.23;1.13;;;;;;;;;;5039031;28;20270;-89
2023/03/17 14:05:27;;;;;;;2.85;1.38;;;;;;;;;;5037931;28;20682;-87
2023/03/17 14:07:59;;;;;;;1.30;1.20;;;;;;;;;;5038346;28;20646;-87
2023/03/17 14:10:31;;;;;;;1.35;1.25;;;;;;;;;;5035975;28;20174;-88
2023/03/17 14:13:03;;;;;;;0.95;0.95;;;;;;;;;;5037979;28;20230;-86
2023/03/17 14:15:35;;;;;;;1.27;1.15;;;;;;;;;;5040295;28;20225;-87
2023/03/17 14:18:09;;;;;;;1.30;1.20;;;;;;;;;;5039995;28;20290;-86
2023/03/17 14:20:37;;;;;;;1.25;1.10;;;;;;;;;;5040743;28;20205;-86
2023/03/17 14:23:05;;;;;;;2.75;1.35;;;;;;;;;;5041187;28;20225;-87
2023/03/17 14:25:34;;;;;;;1.30;1.20;;;;;;;;;;5041526;28;20233;-86
2023/03/17 14:28:06;;;;;;;1.63;1.30;;;;;;;;;;5040772;28;20210;-87
2023/03/17 14:30:35;;;;;;;1.40;1.30;;;;;;;;;;5046276;28;20213;-88
2023/03/17 14:33:06;;;;;;;1.63;1.38;;;;;;;;;;5061880;28;20572;-88
2023/03/17 14:35:37;;;;;;;3.35;1.70;;;;;;;;;;5059379;28;20237;-88
2023/03/17 14:38:18;;;;;;;1.63;1.52;;;;;;;;;;5060672;28;20529;-87
2023/03/17 14:40:46;;;;;;;1.70;1.58;;;;;;;;;;5061265;28;20205;-86
2023/03/17 14:43:15;;;;;;;2.42;2.22;;;;;;;;;;5061090;28;20244;-87
2023/03/17 14:45:49;;;;;;;3.00;1.65;;;;;;;;;;5061076;28;20252;-87
2023/03/17 14:48:22;;;;;;;1.50;1.38;;;;;;;;;;5060742;28;20282;-87
2023/03/17 14:50:53;;;;;;;2.70;1.40;;;;;;;;;;5059933;28;20186;-88
2023/03/17 14:53:22;;;;;;;1.70;1.33;;;;;;;;;;5060474;28;20244;-88
2023/03/17 14:55:52;;;;;;;2.58;1.45;;;;;;;;;;5060513;28;20181;-88
2023/03/17 14:58:24;;;;;;;2.05;1.10;;;;;;;;;;5059034;28;20266;-87
2023/03/17 15:00:57;;;;;;;1.77;1.63;;;;;;;;;;5052258;28;20270;-87
2023/03/17 15:03:28;;;;;;;1.58;1.48;;;;;;;;;;5039625;28;20210;-87
2023/03/17 15:06:21;;;;;;;3.20;2.38;;;;;;;;;;5039697;28;20198;-87
2023/03/17 15:08:49;;;;;;;1.10;1.10;;;;;;;;;;5039625;28;20260;-87
2023/03/17 15:11:21;;;;;;;1.67;1.30;;;;;;;;;;5038493;28;20252;-87